Time,TemperatureF,DewpointF,PressureIn,WindDirection,WindDirectionDegrees,WindSpeedMPH,WindSpeedGustMPH,Humidity,HourlyPrecipIn,Conditions,Clouds,dailyrainin,SoftwareType,DateUTC
2013-02-13 00:00:00,47.1,36.8,29.91,WNW,289,0.0,0.0,67,0.00,,,0.00,WUHU216DAVISVP2,2013-02-13 05:00:00,
2013-02-13 00:05:00,47.0,36.7,29.91,WNW,289,0.0,0.0,67,0.00,,,0.00,WUHU216DAVISVP2,2013-02-13 05:05:00,
2013-02-13 00:10:00,47.0,36.7,29.91,WNW,289,0.0,0.0,67,0.00,,,0.00,WUHU216DAVISVP2,2013-02-13 05:10:00,
2013-02-13 00:15:00,47.0,37.1,29.91,WNW,289,0.0,0.0,68,0.00,,,0.00,WUHU216DAVISVP2,2013-02-13 05:15:00,
2013-02-13 00:22:00,46.8,36.5,29.91,WNW,289,0.0,0.0,67,0.00,,,0.00,WUHU216DAVISVP2,2013-02-13 05:22:00,
2013-02-13 00:27:00,46.8,36.5,29.91,WNW,289,0.0,0.0,67,0.00,,,0.00,WUHU216DAVISVP2,2013-02-13 05:27:00,
2013-02-13 00:32:00,46.8,36.5,29.92,WNW,289,0.0,0.0,67,0.00,,,0.00,WUHU216DAVISVP2,2013-02-13 05:32:00,
2013-02-13 00:37:00,46.8,36.9,29.92,WNW,289,0.0,0.0,68,0.00,,,0.00,WUHU216DAVISVP2,2013-02-13 05:37:00,
2013-02-13 00:42:00,46.8,36.9,29.92,WNW,289,0.0,0.0,68,0.00,,,0.00,WUHU216DAVISVP2,2013-02-13 05:42:00,
2013-02-13 00:47:00,47.0,37.8,29.91,WNW,289,0.0,0.0,70,0.00,,,0.00,WUHU216DAVISVP2,2013-02-13 05:47:00,
2013-02-13 00:52:00,47.0,37.5,29.91,WNW,289,0.0,0.0,69,0.00,,,0.00,WUHU216DAVISVP2,2013-02-13 05:52:00,
2013-02-13 00:57:00,47.0,37.5,29.91,WNW,289,0.0,0.0,69,0.00,,,0.00,WUHU216DAVISVP2,2013-02-13 05:57:00,
2013-02-13 01:02:00,47.0,37.5,29.89,WNW,289,0.0,0.0,69,0.00,,,0.00,WUHU216DAVISVP2,2013-02-13 06:02:00,
2013-02-13 01:07:00,47.0,37.5,29.89,WNW,289,0.0,0.0,69,0.00,,,0.00,WUHU216DAVISVP2,2013-02-13 06:07:00,
2013-02-13 01:12:00,46.8,37.6,29.89,WNW,289,0.0,0.0,70,0.00,,,0.00,WUHU216DAVISVP2,2013-02-13 06:12:00,
2013-02-13 01:17:00,46.8,36.5,29.88,WNW,289,0.0,1.0,67,0.00,,,0.00,WUHU216DAVISVP2,2013-02-13 06:17:00,
2013-02-13 01:22:00,46.8,36.5,29.88,WNW,289,0.0,1.0,67,0.00,,,0.00,WUHU216DAVISVP2,2013-02-13 06:22:00,
2013-02-13 01:27:00,47.0,37.5,29.88,WNW,289,0.0,0.0,69,0.00,,,0.00,WUHU216DAVISVP2,2013-02-13 06:27:00,
2013-02-13 01:32:00,47.0,37.5,29.88,WNW,289,0.0,0.0,69,0.00,,,0.00,WUHU216DAVISVP2,2013-02-13 06:32:00,
2013-02-13 01:37:00,47.0,37.1,29.88,WNW,289,0.0,0.0,68,0.00,,,0.00,WUHU216DAVISVP2,2013-02-13 06:37:00,
2013-02-13 01:42:00,47.0,37.1,29.88,WNW,289,0.0,0.0,68,0.00,,,0.00,WUHU216DAVISVP2,2013-02-13 06:42:00,
2013-02-13 01:47:00,47.0,37.8,29.87,WNW,289,0.0,0.0,70,0.00,,,0.00,WUHU216DAVISVP2,2013-02-13 06:47:00,
2013-02-13 01:52:00,47.0,37.5,29.87,WNW,289,0.0,0.0,69,0.00,,,0.00,WUHU216DAVISVP2,2013-02-13 06:52:00,
2013-02-13 01:57:00,47.0,37.5,29.87,WNW,289,0.0,0.0,69,0.00,,,0.00,WUHU216DAVISVP2,2013-02-13 06:57:00,
2013-02-13 02:02:00,47.0,37.5,29.85,WNW,289,0.0,0.0,69,0.00,,,0.00,WUHU216DAVISVP2,2013-02-13 07:02:00,
2013-02-13 02:07:00,47.0,37.8,29.85,WNW,289,0.0,0.0,70,0.00,,,0.00,WUHU216DAVISVP2,2013-02-13 07:07:00,
2013-02-13 02:12:00,47.0,37.8,29.85,WNW,289,0.0,0.0,70,0.00,,,0.00,WUHU216DAVISVP2,2013-02-13 07:12:00,
2013-02-13 02:17:00,47.0,37.8,29.84,WNW,289,0.0,0.0,70,0.00,,,0.00,WUHU216DAVISVP2,2013-02-13 07:17:00,
2013-02-13 02:22:00,46.8,38.0,29.84,WNW,289,0.0,0.0,71,0.00,,,0.00,WUHU216DAVISVP2,2013-02-13 07:22:00,
2013-02-13 02:27:00,46.8,38.0,29.84,WNW,289,0.0,0.0,71,0.00,,,0.00,WUHU216DAVISVP2,2013-02-13 07:27:00,
2013-02-13 02:32:00,46.8,38.0,29.83,WNW,289,0.0,0.0,71,0.00,,,0.00,WUHU216DAVISVP2,2013-02-13 07:32:00,
2013-02-13 02:37:00,46.7,37.5,29.83,WNW,289,0.0,0.0,70,0.00,,,0.00,WUHU216DAVISVP2,2013-02-13 07:37:00,
2013-02-13 02:42:00,46.5,37.0,29.83,WNW,289,0.0,0.0,69,0.00,,,0.00,WUHU216DAVISVP2,2013-02-13 07:42:00,
2013-02-13 02:47:00,46.7,37.5,29.83,WNW,289,0.0,0.0,70,0.00,,,0.00,WUHU216DAVISVP2,2013-02-13 07:47:00,
2013-02-13 02:52:00,46.7,37.8,29.83,WNW,289,0.0,0.0,71,0.00,,,0.00,WUHU216DAVISVP2,2013-02-13 07:52:00,
2013-02-13 02:57:00,46.7,37.8,29.83,WNW,289,0.0,1.0,71,0.00,,,0.00,WUHU216DAVISVP2,2013-02-13 07:57:00,
2013-02-13 03:02:00,46.7,38.1,29.85,WNW,289,0.0,1.0,72,0.00,,,0.00,WUHU216DAVISVP2,2013-02-13 08:02:00,
2013-02-13 03:07:00,46.7,38.1,29.85,WNW,289,0.0,1.0,72,0.00,,,0.00,WUHU216DAVISVP2,2013-02-13 08:07:00,
2013-02-13 03:12:00,46.5,38.0,29.85,WNW,289,0.0,1.0,72,0.00,,,0.00,WUHU216DAVISVP2,2013-02-13 08:12:00,
2013-02-13 03:17:00,46.4,37.9,29.85,WNW,289,0.0,1.0,72,0.00,,,0.00,WUHU216DAVISVP2,2013-02-13 08:17:00,
2013-02-13 03:22:00,46.2,37.8,29.85,WNW,289,0.0,0.0,72,0.00,,,0.00,WUHU216DAVISVP2,2013-02-13 08:22:00,
2013-02-13 16:25:00,49.5,46.9,29.62,NE,35,0.0,0.0,91,0.00,,,0.34,WUHU216DAVISVP2,2013-02-13 21:25:00,
2013-02-13 16:30:00,49.5,46.9,29.60,NNE,14,0.0,0.0,91,0.00,,,0.34,WUHU216DAVISVP2,2013-02-13 21:30:00,
2013-02-13 16:35:00,49.5,46.9,29.60,NE,49,0.0,0.0,91,0.00,,,0.34,WUHU216DAVISVP2,2013-02-13 21:35:00,
2013-02-13 16:40:00,49.4,46.8,29.60,NE,49,0.0,0.0,91,0.01,,,0.35,WUHU216DAVISVP2,2013-02-13 21:40:00,
2013-02-13 16:45:00,49.4,46.8,29.61,NE,49,0.0,1.0,91,0.01,,,0.35,WUHU216DAVISVP2,2013-02-13 21:45:00,
2013-02-13 16:50:00,49.5,46.9,29.61,NE,49,0.0,1.0,91,0.01,,,0.35,WUHU216DAVISVP2,2013-02-13 21:50:00,
2013-02-13 16:55:00,49.5,46.9,29.61,NE,49,0.0,0.0,91,0.01,,,0.35,WUHU216DAVISVP2,2013-02-13 21:55:00,
2013-02-13 17:00:00,49.5,46.9,29.61,NE,49,0.0,1.0,91,0.01,,,0.35,WUHU216DAVISVP2,2013-02-13 22:00:00,
2013-02-13 17:05:00,49.5,46.9,29.61,NE,49,0.0,1.0,91,0.01,,,0.35,WUHU216DAVISVP2,2013-02-13 22:05:00,
2013-02-13 17:10:00,49.5,46.9,29.61,ENE,58,0.0,2.0,91,0.01,,,0.35,WUHU216DAVISVP2,2013-02-13 22:10:00,
2013-02-13 17:15:00,49.5,46.9,29.61,NE,54,0.0,2.0,91,0.01,,,0.35,WUHU216DAVISVP2,2013-02-13 22:15:00,
2013-02-13 17:20:00,49.5,46.9,29.61,NE,54,0.0,2.0,91,0.01,,,0.35,WUHU216DAVISVP2,2013-02-13 22:20:00,
2013-02-13 17:25:00,49.5,46.9,29.61,North,0,0.0,0.0,91,0.01,,,0.35,WUHU216DAVISVP2,2013-02-13 22:25:00,
2013-02-13 17:30:00,49.4,46.8,29.62,North,0,0.0,0.0,91,0.01,,,0.35,WUHU216DAVISVP2,2013-02-13 22:30:00,
2013-02-13 17:35:00,49.4,46.8,29.62,North,0,0.0,0.0,91,0.01,,,0.35,WUHU216DAVISVP2,2013-02-13 22:35:00,
2013-02-13 17:40:00,49.4,46.8,29.62,North,0,0.0,0.0,91,0.00,,,0.35,WUHU216DAVISVP2,2013-02-13 22:40:00,
2013-02-13 17:45:00,49.4,46.8,29.63,North,0,0.0,1.0,91,0.00,,,0.35,WUHU216DAVISVP2,2013-02-13 22:45:00,
2013-02-13 17:50:00,49.4,46.8,29.63,North,0,0.0,1.0,91,0.00,,,0.35,WUHU216DAVISVP2,2013-02-13 22:50:00,
2013-02-13 17:55:00,49.5,46.9,29.63,NNW,343,0.0,2.0,91,0.00,,,0.35,WUHU216DAVISVP2,2013-02-13 22:55:00,
2013-02-13 18:00:00,49.5,46.9,29.62,WNW,299,1.0,2.0,91,0.00,,,0.35,WUHU216DAVISVP2,2013-02-13 23:00:00,
2013-02-13 18:05:00,49.5,47.0,29.62,WNW,299,0.0,2.0,91,0.00,,,0.35,WUHU216DAVISVP2,2013-02-13 23:05:00,
2013-02-13 18:10:00,49.6,47.0,29.62,WNW,299,0.0,1.0,91,0.00,,,0.35,WUHU216DAVISVP2,2013-02-13 23:10:00,
2013-02-13 18:15:00,49.5,46.9,29.62,WNW,292,0.0,4.0,91,0.00,,,0.35,WUHU216DAVISVP2,2013-02-13 23:15:00,
2013-02-13 18:20:00,49.5,46.9,29.62,NW,322,6.0,6.0,91,0.00,,,0.35,WUHU216DAVISVP2,2013-02-13 23:20:00,
2013-02-13 18:25:00,49.6,47.0,29.62,ENE,75,0.0,6.0,91,0.00,,,0.35,WUHU216DAVISVP2,2013-02-13 23:25:00,
2013-02-13 18:30:00,49.8,47.2,29.65,NNW,342,0.0,6.0,91,0.00,,,0.35,WUHU216DAVISVP2,2013-02-13 23:30:00,
2013-02-13 18:35:00,49.8,47.2,29.65,ENE,61,0.0,6.0,91,0.00,,,0.35,WUHU216DAVISVP2,2013-02-13 23:35:00,
2013-02-13 18:40:00,49.8,47.3,29.65,ENE,61,0.0,6.0,91,0.00,,,0.35,WUHU216DAVISVP2,2013-02-13 23:40:00,
2013-02-13 18:45:00,49.8,47.3,29.65,NW,322,0.0,0.0,91,0.00,,,0.35,WUHU216DAVISVP2,2013-02-13 23:45:00,
2013-02-13 18:50:00,49.8,47.2,29.65,NW,322,0.0,0.0,91,0.00,,,0.35,WUHU216DAVISVP2,2013-02-13 23:50:00,
2013-02-13 18:55:00,49.8,47.2,29.65,NW,322,0.0,0.0,91,0.00,,,0.35,WUHU216DAVISVP2,2013-02-13 23:55:00,
2013-02-13 19:45:00,49.6,47.0,29.66,NNW,329,0.0,0.0,91,0.00,,,0.35,WUHU216DAVISVP2,2013-02-14 00:45:00,
2013-02-13 19:50:00,49.8,47.2,29.66,NNW,329,0.0,0.0,91,0.00,,,0.35,WUHU216DAVISVP2,2013-02-14 00:50:00,
2013-02-13 19:55:00,49.8,47.2,29.66,NNW,330,0.0,0.0,91,0.00,,,0.35,WUHU216DAVISVP2,2013-02-14 00:55:00,
2013-02-13 20:00:00,49.8,47.2,29.67,NNW,330,0.0,0.0,91,0.00,,,0.35,WUHU216DAVISVP2,2013-02-14 01:00:00,
2013-02-13 23:27:00,42.3,39.0,29.77,NNW,336,0.0,0.0,88,0.00,,,0.35,WUHU216DAVISVP2,2013-02-14 04:27:00,
2013-02-13 23:32:00,42.1,38.8,29.78,NNW,329,0.0,2.0,88,0.00,,,0.35,WUHU216DAVISVP2,2013-02-14 04:32:00,
2013-02-13 23:37:00,41.9,38.6,29.78,NNW,335,0.0,2.0,88,0.00,,,0.35,WUHU216DAVISVP2,2013-02-14 04:37:00,
2013-02-13 23:42:00,41.6,38.3,29.78,NW,306,0.0,6.0,88,0.00,,,0.35,WUHU216DAVISVP2,2013-02-14 04:42:00,
2013-02-13 23:47:00,41.5,38.2,29.79,NW,306,0.0,6.0,88,0.00,,,0.35,WUHU216DAVISVP2,2013-02-14 04:47:00,
2013-02-13 23:52:00,41.3,38.0,29.79,WNW,282,0.0,4.0,88,0.00,,,0.35,WUHU216DAVISVP2,2013-02-14 04:52:00,
2013-02-13 23:57:00,41.2,37.9,29.79,North,0,0.0,4.0,88,0.00,,,0.35,WUHU216DAVISVP2,2013-02-14 04:57:00,